ADDS TAF Board (Experimental) INFO

IDs: Format: Expanded Condensed

Updated at: 1046 UTC 19 Dec 2014

KPIT - Pittsburgh Intl, PA, US

Issued at 0821 UTC 19 Dec 2014
Time0951Z19/11Z19/12Z19/13Z19/14Z19/15Z19/16Z19/17Z19/18Z19/19Z19/20Z19/21Z19/22Z19/23Z
TypeOBSPRVL
  [TEMP]  
PRVLPRVLPRVLPRVLPRVLPRVLPRVLPRVLPRVLPRVLPRVLPRVL
VIS66
  [4]  
666>6>6>6>6>6>6>6>6>6
CIG1010
  [7]  
101010151515151515151515
CoverOVCOVC
  [OVC]  
OVCOVCOVCBKNBKNBKNBKNBKNBKNBKNBKNBKN
FltCatMVFRMVFR
  [IFR]  
MVFRMVFRMVFRMVFRMVFRMVFRMVFRMVFRMVFRMVFRMVFRMVFR
WX-FZDZ BRBR
  [-FZDZ BR]  
BRBRBR------------------
WDir270260
[260]
260260260280280280280280280280280280
WSpd66
  [6]  
666777777777
WGst----
  [--]  
------------------------
R10/28
XWnd-0-1-1-1-1111111111
XGst--0------------------------
HWnd-6-6-6-6-6-7-7-7-7-7-7-7-7-7
HGst--0------------------------
R14/32
XWnd-4-5-5-5-5-4-4-4-4-4-4-4-4-4
XGst--0------------------------
HWnd-4-3-3-3-3-6-6-6-6-6-6-6-6-6
HGst--0------------------------
Raw TAF
KPIT 190821Z 1908/2012 26006KT 6SM BR OVC010
  TEMPO 1908/1912 4SM -FZDZ BR OVC007
  FM191500 28007KT P6SM BKN015
  FM200000 31003KT P6SM OVC025


Raw METAR
KPIT 190951Z 27006KT 6SM -FZDZ BR OVC010 M03/M04 A3014 RMK AO2 FZDZB37 SLP228 P0000 I1000 T10281039
KPIT 190937Z 25006KT 6SM -FZDZ BR OVC010 M02/M04 A3014 RMK AO2 FZDZB37 P0000 I1000 T10221039

TAF Board Legend

Hazard VFR MVFR IFR LIFR
Visibility (sm) >5 3≤X≤5 1≤X<3 <1
Ceiling (100 ft) >30 10≤X≤30 5≤X<10 <5
Wind Speed (kt) <10 10≤X<20 20≤X<30 ≥30
Wind Gust (kt) <15 15≤X<25 25≤X<35 ≥35
Weather No Wx Reported VCTS,-TS,-FZRA TS,FZRA +TS,+FZRA


Page loaded:  10:46 UTC  |   02:46 AM Pacific  |   03:46 AM Mountain  |   04:46 AM Central  |   05:46 AM Eastern

 

ADVISORIES

FORECASTS

FORECASTS

OBSERVATIONS

USER TOOLS

ABOUT US